sensor_id;sensor_type;location;lat;lon;timestamp;P1;durP1;ratioP1;P2;durP2;ratioP2
36797;SDS011;22748;8.426;99.512;2023-04-15T00:00:12;41.63;;;35.15;;
36797;SDS011;22748;8.426;99.512;2023-04-15T00:02:47;65.38;;;40.15;;
36797;SDS011;22748;8.426;99.512;2023-04-15T00:05:19;102.38;;;42.85;;
36797;SDS011;22748;8.426;99.512;2023-04-15T00:07:49;50.30;;;40.92;;
36797;SDS011;22748;8.426;99.512;2023-04-15T00:10:27;60.30;;;42.38;;
36797;SDS011;22748;8.426;99.512;2023-04-15T00:12:57;65.15;;;42.60;;
36797;SDS011;22748;8.426;99.512;2023-04-15T00:15:36;47.35;;;40.75;;
36797;SDS011;22748;8.426;99.512;2023-04-15T00:18:07;48.95;;;43.67;;
36797;SDS011;22748;8.426;99.512;2023-04-15T00:20:38;50.05;;;44.13;;
36797;SDS011;22748;8.426;99.512;2023-04-15T00:23:08;49.67;;;44.42;;
36797;SDS011;22748;8.426;99.512;2023-04-15T00:25:41;51.20;;;45.50;;
36797;SDS011;22748;8.426;99.512;2023-04-15T00:28:12;60.13;;;45.22;;
36797;SDS011;22748;8.426;99.512;2023-04-15T00:30:43;61.45;;;45.83;;
36797;SDS011;22748;8.426;99.512;2023-04-15T00:33:15;50.97;;;45.22;;
36797;SDS011;22748;8.426;99.512;2023-04-15T00:35:45;53.03;;;45.58;;
36797;SDS011;22748;8.426;99.512;2023-04-15T00:38:21;51.25;;;44.92;;
36797;SDS011;22748;8.426;99.512;2023-04-15T00:43:24;51.90;;;46.08;;
36797;SDS011;22748;8.426;99.512;2023-04-15T00:46:03;55.72;;;46.88;;
36797;SDS011;22748;8.426;99.512;2023-04-15T00:48:39;52.00;;;46.67;;
36797;SDS011;22748;8.426;99.512;2023-04-15T00:51:16;63.08;;;50.67;;
36797;SDS011;22748;8.426;99.512;2023-04-15T00:53:46;54.38;;;48.72;;
36797;SDS011;22748;8.426;99.512;2023-04-15T00:58:55;55.35;;;49.45;;
36797;SDS011;22748;8.426;99.512;2023-04-15T01:01:40;53.97;;;48.28;;
36797;SDS011;22748;8.426;99.512;2023-04-15T01:04:17;55.28;;;49.40;;
36797;SDS011;22748;8.426;99.512;2023-04-15T01:06:47;55.07;;;48.97;;
36797;SDS011;22748;8.426;99.512;2023-04-15T01:09:30;56.20;;;50.38;;
36797;SDS011;22748;8.426;99.512;2023-04-15T01:12:04;54.43;;;48.63;;
36797;SDS011;22748;8.426;99.512;2023-04-15T01:14:36;53.85;;;47.67;;
36797;SDS011;22748;8.426;99.512;2023-04-15T01:17:07;59.50;;;52.47;;
36797;SDS011;22748;8.426;99.512;2023-04-15T01:19:41;58.97;;;52.25;;
36797;SDS011;22748;8.426;99.512;2023-04-15T01:22:24;55.58;;;49.63;;
36797;SDS011;22748;8.426;99.512;2023-04-15T01:25:08;56.08;;;50.05;;
36797;SDS011;22748;8.426;99.512;2023-04-15T01:27:47;59.67;;;51.40;;
36797;SDS011;22748;8.426;99.512;2023-04-15T01:30:26;57.88;;;51.60;;
36797;SDS011;22748;8.426;99.512;2023-04-15T01:33:02;53.17;;;47.50;;
36797;SDS011;22748;8.426;99.512;2023-04-15T01:35:33;56.08;;;50.08;;
36797;SDS011;22748;8.426;99.512;2023-04-15T01:38:04;54.38;;;48.83;;
36797;SDS011;22748;8.426;99.512;2023-04-15T01:40:39;56.10;;;49.80;;
36797;SDS011;22748;8.426;99.512;2023-04-15T01:43:14;55.97;;;49.88;;
36797;SDS011;22748;8.426;99.512;2023-04-15T01:45:48;55.15;;;49.55;;
36797;SDS011;22748;8.426;99.512;2023-04-15T01:48:27;58.45;;;50.28;;
36797;SDS011;22748;8.426;99.512;2023-04-15T01:50:58;55.47;;;49.22;;
36797;SDS011;22748;8.426;99.512;2023-04-15T01:53:29;56.67;;;50.92;;
36797;SDS011;22748;8.426;99.512;2023-04-15T01:58:30;57.70;;;49.10;;
36797;SDS011;22748;8.426;99.512;2023-04-15T02:01:02;55.78;;;49.75;;
36797;SDS011;22748;8.426;99.512;2023-04-15T02:06:03;68.57;;;52.63;;
36797;SDS011;22748;8.426;99.512;2023-04-15T02:08:36;56.47;;;50.70;;
36797;SDS011;22748;8.426;99.512;2023-04-15T02:11:07;56.97;;;50.22;;
36797;SDS011;22748;8.426;99.512;2023-04-15T02:13:49;62.10;;;53.25;;
36797;SDS011;22748;8.426;99.512;2023-04-15T02:16:22;58.38;;;52.10;;
36797;SDS011;22748;8.426;99.512;2023-04-15T02:19:01;59.50;;;53.10;;
36797;SDS011;22748;8.426;99.512;2023-04-15T02:21:33;60.58;;;54.10;;
36797;SDS011;22748;8.426;99.512;2023-04-15T02:26:38;55.60;;;50.17;;
36797;SDS011;22748;8.426;99.512;2023-04-15T02:29:22;67.65;;;53.85;;
36797;SDS011;22748;8.426;99.512;2023-04-15T02:31:54;64.00;;;56.95;;
36797;SDS011;22748;8.426;99.512;2023-04-15T02:34:25;62.67;;;56.03;;
36797;SDS011;22748;8.426;99.512;2023-04-15T02:36:56;63.72;;;56.47;;
36797;SDS011;22748;8.426;99.512;2023-04-15T02:39:27;62.97;;;56.20;;
36797;SDS011;22748;8.426;99.512;2023-04-15T02:41:58;64.78;;;56.08;;
36797;SDS011;22748;8.426;99.512;2023-04-15T02:44:35;61.45;;;55.03;;
36797;SDS011;22748;8.426;99.512;2023-04-15T02:47:20;62.97;;;56.30;;
36797;SDS011;22748;8.426;99.512;2023-04-15T02:50:06;64.10;;;57.28;;
36797;SDS011;22748;8.426;99.512;2023-04-15T02:52:46;62.57;;;55.80;;
36797;SDS011;22748;8.426;99.512;2023-04-15T02:55:17;63.55;;;56.63;;
36797;SDS011;22748;8.426;99.512;2023-04-15T03:00:19;63.38;;;55.28;;
36797;SDS011;22748;8.426;99.512;2023-04-15T03:02:56;59.63;;;53.17;;
36797;SDS011;22748;8.426;99.512;2023-04-15T03:05:29;61.33;;;54.90;;
36797;SDS011;22748;8.426;99.512;2023-04-15T03:08:07;63.50;;;56.78;;
36797;SDS011;22748;8.426;99.512;2023-04-15T03:10:38;64.10;;;57.42;;
36797;SDS011;22748;8.426;99.512;2023-04-15T03:13:20;61.45;;;54.88;;
36797;SDS011;22748;8.426;99.512;2023-04-15T03:15:54;66.88;;;56.97;;
36797;SDS011;22748;8.426;99.512;2023-04-15T03:18:25;61.65;;;54.97;;
36797;SDS011;22748;8.426;99.512;2023-04-15T03:21:03;61.28;;;54.70;;
36797;SDS011;22748;8.426;99.512;2023-04-15T03:23:33;59.85;;;53.63;;
36797;SDS011;22748;8.426;99.512;2023-04-15T03:26:06;61.10;;;54.65;;
36797;SDS011;22748;8.426;99.512;2023-04-15T03:28:36;63.83;;;54.15;;
36797;SDS011;22748;8.426;99.512;2023-04-15T03:31:11;62.13;;;55.10;;
36797;SDS011;22748;8.426;99.512;2023-04-15T03:33:41;64.47;;;54.40;;
36797;SDS011;22748;8.426;99.512;2023-04-15T03:36:11;68.82;;;57.75;;
36797;SDS011;22748;8.426;99.512;2023-04-15T03:38:42;61.10;;;54.58;;
36797;SDS011;22748;8.426;99.512;2023-04-15T03:41:16;62.40;;;55.08;;
36797;SDS011;22748;8.426;99.512;2023-04-15T03:46:20;59.30;;;52.92;;
36797;SDS011;22748;8.426;99.512;2023-04-15T03:48:50;65.72;;;55.20;;
36797;SDS011;22748;8.426;99.512;2023-04-15T03:51:32;65.03;;;54.50;;
36797;SDS011;22748;8.426;99.512;2023-04-15T03:54:04;60.78;;;52.75;;
36797;SDS011;22748;8.426;99.512;2023-04-15T03:56:35;61.65;;;55.00;;
36797;SDS011;22748;8.426;99.512;2023-04-15T03:59:11;58.53;;;52.28;;
36797;SDS011;22748;8.426;99.512;2023-04-15T04:01:54;59.50;;;53.13;;
36797;SDS011;22748;8.426;99.512;2023-04-15T04:04:25;58.78;;;52.72;;
36797;SDS011;22748;8.426;99.512;2023-04-15T04:09:42;90.55;;;54.20;;
36797;SDS011;22748;8.426;99.512;2023-04-15T04:12:13;59.33;;;51.70;;
36797;SDS011;22748;8.426;99.512;2023-04-15T04:14:43;59.80;;;51.58;;
36797;SDS011;22748;8.426;99.512;2023-04-15T04:17:16;58.40;;;52.20;;
36797;SDS011;22748;8.426;99.512;2023-04-15T04:19:53;58.40;;;52.17;;
36797;SDS011;22748;8.426;99.512;2023-04-15T04:22:28;59.15;;;52.78;;
36797;SDS011;22748;8.426;99.512;2023-04-15T04:24:59;58.08;;;51.92;;
36797;SDS011;22748;8.426;99.512;2023-04-15T04:27:30;58.60;;;52.63;;
36797;SDS011;22748;8.426;99.512;2023-04-15T04:30:00;58.00;;;52.15;;
36797;SDS011;22748;8.426;99.512;2023-04-15T04:32:32;63.33;;;52.75;;
36797;SDS011;22748;8.426;99.512;2023-04-15T04:35:02;58.83;;;52.65;;
36797;SDS011;22748;8.426;99.512;2023-04-15T04:37:36;57.78;;;51.95;;
36797;SDS011;22748;8.426;99.512;2023-04-15T04:40:15;60.22;;;54.10;;
36797;SDS011;22748;8.426;99.512;2023-04-15T04:42:57;59.47;;;53.20;;
36797;SDS011;22748;8.426;99.512;2023-04-15T04:45:27;66.43;;;54.17;;
36797;SDS011;22748;8.426;99.512;2023-04-15T04:48:05;61.70;;;54.35;;
36797;SDS011;22748;8.426;99.512;2023-04-15T04:50:36;59.92;;;53.72;;
36797;SDS011;22748;8.426;99.512;2023-04-15T04:53:08;62.20;;;55.45;;
36797;SDS011;22748;8.426;99.512;2023-04-15T04:55:43;60.67;;;54.38;;
36797;SDS011;22748;8.426;99.512;2023-04-15T04:58:13;59.78;;;53.72;;
36797;SDS011;22748;8.426;99.512;2023-04-15T05:00:44;60.45;;;54.08;;
36797;SDS011;22748;8.426;99.512;2023-04-15T05:03:18;60.00;;;53.72;;
36797;SDS011;22748;8.426;99.512;2023-04-15T05:05:50;60.10;;;53.83;;
36797;SDS011;22748;8.426;99.512;2023-04-15T05:10:53;59.67;;;53.28;;
36797;SDS011;22748;8.426;99.512;2023-04-15T05:15:55;59.40;;;52.63;;
36797;SDS011;22748;8.426;99.512;2023-04-15T05:18:40;60.55;;;54.22;;
36797;SDS011;22748;8.426;99.512;2023-04-15T05:21:10;57.70;;;51.55;;
36797;SDS011;22748;8.426;99.512;2023-04-15T05:23:51;57.70;;;51.65;;
36797;SDS011;22748;8.426;99.512;2023-04-15T05:26:25;55.03;;;49.17;;
36797;SDS011;22748;8.426;99.512;2023-04-15T05:28:56;57.90;;;51.78;;
36797;SDS011;22748;8.426;99.512;2023-04-15T05:31:26;57.53;;;51.30;;
36797;SDS011;22748;8.426;99.512;2023-04-15T05:34:15;57.20;;;50.83;;
36797;SDS011;22748;8.426;99.512;2023-04-15T05:36:48;57.17;;;51.00;;
36797;SDS011;22748;8.426;99.512;2023-04-15T05:39:22;57.05;;;51.05;;
36797;SDS011;22748;8.426;99.512;2023-04-15T05:41:57;54.63;;;48.95;;
36797;SDS011;22748;8.426;99.512;2023-04-15T05:44:28;56.05;;;50.20;;
36797;SDS011;22748;8.426;99.512;2023-04-15T05:46:58;56.83;;;50.88;;
36797;SDS011;22748;8.426;99.512;2023-04-15T05:49:31;57.20;;;51.17;;
36797;SDS011;22748;8.426;99.512;2023-04-15T05:52:02;57.60;;;52.03;;
36797;SDS011;22748;8.426;99.512;2023-04-15T05:54:33;54.95;;;49.22;;
36797;SDS011;22748;8.426;99.512;2023-04-15T05:59:35;54.88;;;48.97;;
36797;SDS011;22748;8.426;99.512;2023-04-15T06:02:09;58.45;;;49.38;;
36797;SDS011;22748;8.426;99.512;2023-04-15T06:04:42;55.45;;;49.58;;
36797;SDS011;22748;8.426;99.512;2023-04-15T06:07:13;54.85;;;49.10;;
36797;SDS011;22748;8.426;99.512;2023-04-15T06:09:43;55.85;;;50.03;;
36797;SDS011;22748;8.426;99.512;2023-04-15T06:12:14;54.90;;;49.30;;
36797;SDS011;22748;8.426;99.512;2023-04-15T06:14:44;61.28;;;50.95;;
36797;SDS011;22748;8.426;99.512;2023-04-15T06:17:15;55.58;;;49.85;;
36797;SDS011;22748;8.426;99.512;2023-04-15T06:19:47;54.25;;;48.47;;
36797;SDS011;22748;8.426;99.512;2023-04-15T06:22:20;55.15;;;49.45;;
36797;SDS011;22748;8.426;99.512;2023-04-15T06:24:52;55.90;;;50.08;;
36797;SDS011;22748;8.426;99.512;2023-04-15T06:27:25;54.33;;;48.50;;
36797;SDS011;22748;8.426;99.512;2023-04-15T06:29:58;53.15;;;47.38;;
36797;SDS011;22748;8.426;99.512;2023-04-15T06:32:38;52.90;;;47.20;;
36797;SDS011;22748;8.426;99.512;2023-04-15T06:35:11;52.63;;;47.35;;
36797;SDS011;22748;8.426;99.512;2023-04-15T06:37:42;55.20;;;47.22;;
36797;SDS011;22748;8.426;99.512;2023-04-15T06:40:12;52.77;;;47.23;;
36797;SDS011;22748;8.426;99.512;2023-04-15T06:42:42;50.78;;;45.47;;
36797;SDS011;22748;8.426;99.512;2023-04-15T06:45:13;51.38;;;46.17;;
36797;SDS011;22748;8.426;99.512;2023-04-15T06:47:45;52.92;;;47.42;;
36797;SDS011;22748;8.426;99.512;2023-04-15T06:50:17;54.35;;;48.55;;
36797;SDS011;22748;8.426;99.512;2023-04-15T06:52:47;53.42;;;47.97;;
36797;SDS011;22748;8.426;99.512;2023-04-15T06:55:17;53.40;;;47.93;;
36797;SDS011;22748;8.426;99.512;2023-04-15T06:57:48;54.15;;;48.83;;
36797;SDS011;22748;8.426;99.512;2023-04-15T07:00:19;55.58;;;48.08;;
36797;SDS011;22748;8.426;99.512;2023-04-15T07:02:49;53.10;;;47.72;;
36797;SDS011;22748;8.426;99.512;2023-04-15T07:05:23;53.28;;;47.72;;
36797;SDS011;22748;8.426;99.512;2023-04-15T07:07:56;53.70;;;48.00;;
36797;SDS011;22748;8.426;99.512;2023-04-15T07:10:28;53.17;;;46.47;;
36797;SDS011;22748;8.426;99.512;2023-04-15T07:12:59;49.85;;;44.75;;
36797;SDS011;22748;8.426;99.512;2023-04-15T07:15:29;50.78;;;45.63;;
36797;SDS011;22748;8.426;99.512;2023-04-15T07:18:01;50.90;;;45.78;;
36797;SDS011;22748;8.426;99.512;2023-04-15T07:20:34;50.80;;;45.75;;
36797;SDS011;22748;8.426;99.512;2023-04-15T07:23:04;52.72;;;46.97;;
36797;SDS011;22748;8.426;99.512;2023-04-15T07:25:37;51.20;;;46.10;;
36797;SDS011;22748;8.426;99.512;2023-04-15T07:28:12;51.67;;;46.28;;
36797;SDS011;22748;8.426;99.512;2023-04-15T07:30:47;51.40;;;46.25;;
36797;SDS011;22748;8.426;99.512;2023-04-15T07:36:03;47.63;;;42.83;;
36797;SDS011;22748;8.426;99.512;2023-04-15T07:38:37;53.05;;;44.92;;
36797;SDS011;22748;8.426;99.512;2023-04-15T07:41:09;48.88;;;43.72;;
36797;SDS011;22748;8.426;99.512;2023-04-15T07:43:40;56.25;;;46.47;;
36797;SDS011;22748;8.426;99.512;2023-04-15T07:48:39;55.55;;;46.58;;
36797;SDS011;22748;8.426;99.512;2023-04-15T07:51:12;50.20;;;45.10;;
36797;SDS011;22748;8.426;99.512;2023-04-15T07:53:43;51.72;;;46.50;;
36797;SDS011;22748;8.426;99.512;2023-04-15T07:56:15;50.83;;;45.58;;
36797;SDS011;22748;8.426;99.512;2023-04-15T08:01:14;51.50;;;46.33;;
36797;SDS011;22748;8.426;99.512;2023-04-15T08:03:45;53.73;;;48.13;;
36797;SDS011;22748;8.426;99.512;2023-04-15T08:06:22;52.72;;;47.42;;
36797;SDS011;22748;8.426;99.512;2023-04-15T08:08:52;52.22;;;46.75;;
36797;SDS011;22748;8.426;99.512;2023-04-15T08:11:22;51.13;;;46.28;;
36797;SDS011;22748;8.426;99.512;2023-04-15T08:13:53;51.40;;;46.08;;
36797;SDS011;22748;8.426;99.512;2023-04-15T08:16:24;48.85;;;43.35;;
36797;SDS011;22748;8.426;99.512;2023-04-15T08:18:55;49.05;;;43.92;;
36797;SDS011;22748;8.426;99.512;2023-04-15T08:21:27;52.03;;;43.20;;
36797;SDS011;22748;8.426;99.512;2023-04-15T08:23:58;52.50;;;44.13;;
36797;SDS011;22748;8.426;99.512;2023-04-15T08:26:30;48.80;;;43.85;;
36797;SDS011;22748;8.426;99.512;2023-04-15T08:29:02;48.58;;;43.30;;
36797;SDS011;22748;8.426;99.512;2023-04-15T08:31:33;46.55;;;41.65;;
36797;SDS011;22748;8.426;99.512;2023-04-15T08:34:03;47.15;;;42.55;;
36797;SDS011;22748;8.426;99.512;2023-04-15T08:36:41;47.42;;;42.25;;
36797;SDS011;22748;8.426;99.512;2023-04-15T08:39:15;48.65;;;43.55;;
36797;SDS011;22748;8.426;99.512;2023-04-15T08:41:54;47.22;;;42.22;;
36797;SDS011;22748;8.426;99.512;2023-04-15T08:44:29;50.00;;;43.50;;
36797;SDS011;22748;8.426;99.512;2023-04-15T08:47:02;47.05;;;42.45;;
36797;SDS011;22748;8.426;99.512;2023-04-15T08:49:35;46.13;;;41.80;;
36797;SDS011;22748;8.426;99.512;2023-04-15T08:52:09;49.90;;;44.50;;
36797;SDS011;22748;8.426;99.512;2023-04-15T08:54:41;52.22;;;46.53;;
36797;SDS011;22748;8.426;99.512;2023-04-15T08:57:11;46.10;;;41.60;;
36797;SDS011;22748;8.426;99.512;2023-04-15T08:59:43;47.63;;;43.08;;
36797;SDS011;22748;8.426;99.512;2023-04-15T09:02:19;49.38;;;44.10;;
36797;SDS011;22748;8.426;99.512;2023-04-15T09:04:52;49.03;;;43.65;;
36797;SDS011;22748;8.426;99.512;2023-04-15T09:07:26;47.65;;;42.90;;
36797;SDS011;22748;8.426;99.512;2023-04-15T09:09:58;47.95;;;43.22;;
36797;SDS011;22748;8.426;99.512;2023-04-15T09:12:29;49.15;;;44.35;;
36797;SDS011;22748;8.426;99.512;2023-04-15T09:15:02;54.95;;;47.33;;
36797;SDS011;22748;8.426;99.512;2023-04-15T09:17:33;50.67;;;45.45;;
36797;SDS011;22748;8.426;99.512;2023-04-15T09:20:11;53.58;;;45.78;;
36797;SDS011;22748;8.426;99.512;2023-04-15T09:22:46;50.08;;;44.90;;
36797;SDS011;22748;8.426;99.512;2023-04-15T09:25:28;59.75;;;44.83;;
36797;SDS011;22748;8.426;99.512;2023-04-15T09:27:59;49.67;;;44.30;;
36797;SDS011;22748;8.426;99.512;2023-04-15T09:30:31;55.70;;;46.20;;
36797;SDS011;22748;8.426;99.512;2023-04-15T09:33:03;49.58;;;44.22;;
36797;SDS011;22748;8.426;99.512;2023-04-15T09:35:37;50.33;;;44.78;;
36797;SDS011;22748;8.426;99.512;2023-04-15T09:38:10;49.22;;;44.28;;
36797;SDS011;22748;8.426;99.512;2023-04-15T09:40:41;50.67;;;45.42;;
36797;SDS011;22748;8.426;99.512;2023-04-15T09:43:12;50.15;;;45.00;;
36797;SDS011;22748;8.426;99.512;2023-04-15T09:48:18;50.47;;;45.00;;
36797;SDS011;22748;8.426;99.512;2023-04-15T09:50:50;53.03;;;45.10;;
36797;SDS011;22748;8.426;99.512;2023-04-15T09:53:26;49.13;;;44.13;;
36797;SDS011;22748;8.426;99.512;2023-04-15T09:55:58;54.05;;;45.97;;
36797;SDS011;22748;8.426;99.512;2023-04-15T09:58:30;50.25;;;44.28;;
36797;SDS011;22748;8.426;99.512;2023-04-15T10:01:03;54.72;;;45.10;;
36797;SDS011;22748;8.426;99.512;2023-04-15T10:03:37;50.90;;;45.33;;
36797;SDS011;22748;8.426;99.512;2023-04-15T10:06:09;51.35;;;45.83;;
36797;SDS011;22748;8.426;99.512;2023-04-15T10:08:42;51.13;;;45.88;;
36797;SDS011;22748;8.426;99.512;2023-04-15T10:11:13;51.25;;;45.80;;
36797;SDS011;22748;8.426;99.512;2023-04-15T10:13:43;51.13;;;46.05;;
36797;SDS011;22748;8.426;99.512;2023-04-15T10:16:14;50.80;;;45.50;;
36797;SDS011;22748;8.426;99.512;2023-04-15T10:18:53;49.88;;;44.35;;
36797;SDS011;22748;8.426;99.512;2023-04-15T10:21:26;56.90;;;46.55;;
36797;SDS011;22748;8.426;99.512;2023-04-15T10:23:59;49.78;;;44.80;;
36797;SDS011;22748;8.426;99.512;2023-04-15T10:26:32;50.28;;;45.05;;
36797;SDS011;22748;8.426;99.512;2023-04-15T10:29:06;52.05;;;46.63;;
36797;SDS011;22748;8.426;99.512;2023-04-15T10:31:37;49.05;;;44.03;;
36797;SDS011;22748;8.426;99.512;2023-04-15T10:34:13;51.25;;;46.00;;
36797;SDS011;22748;8.426;99.512;2023-04-15T10:36:44;54.97;;;45.45;;
36797;SDS011;22748;8.426;99.512;2023-04-15T10:42:20;49.85;;;44.55;;
36797;SDS011;22748;8.426;99.512;2023-04-15T10:44:51;50.30;;;45.05;;
36797;SDS011;22748;8.426;99.512;2023-04-15T10:47:25;51.30;;;46.03;;
36797;SDS011;22748;8.426;99.512;2023-04-15T10:49:56;54.65;;;48.88;;
36797;SDS011;22748;8.426;99.512;2023-04-15T10:52:28;54.65;;;47.95;;
36797;SDS011;22748;8.426;99.512;2023-04-15T10:57:42;51.22;;;45.80;;
36797;SDS011;22748;8.426;99.512;2023-04-15T11:00:14;50.53;;;45.03;;
36797;SDS011;22748;8.426;99.512;2023-04-15T11:02:47;52.40;;;46.85;;
36797;SDS011;22748;8.426;99.512;2023-04-15T11:05:22;52.08;;;46.22;;
36797;SDS011;22748;8.426;99.512;2023-04-15T11:14:39;56.58;;;47.75;;
36797;SDS011;22748;8.426;99.512;2023-04-15T11:17:11;52.80;;;47.28;;
36797;SDS011;22748;8.426;99.512;2023-04-15T11:19:42;54.03;;;48.30;;
36797;SDS011;22748;8.426;99.512;2023-04-15T11:22:13;52.05;;;46.53;;
36797;SDS011;22748;8.426;99.512;2023-04-15T11:24:47;52.80;;;47.33;;
36797;SDS011;22748;8.426;99.512;2023-04-15T11:27:23;51.50;;;46.17;;
36797;SDS011;22748;8.426;99.512;2023-04-15T11:29:54;51.85;;;46.60;;
36797;SDS011;22748;8.426;99.512;2023-04-15T11:34:55;51.95;;;46.63;;
36797;SDS011;22748;8.426;99.512;2023-04-15T11:37:29;53.45;;;48.13;;
36797;SDS011;22748;8.426;99.512;2023-04-15T11:40:01;57.30;;;49.80;;
36797;SDS011;22748;8.426;99.512;2023-04-15T11:42:35;53.28;;;47.80;;
36797;SDS011;22748;8.426;99.512;2023-04-15T11:45:09;52.83;;;47.38;;
36797;SDS011;22748;8.426;99.512;2023-04-15T11:47:43;54.65;;;48.30;;
36797;SDS011;22748;8.426;99.512;2023-04-15T11:50:15;54.75;;;49.13;;
36797;SDS011;22748;8.426;99.512;2023-04-15T11:53:02;53.38;;;47.97;;
36797;SDS011;22748;8.426;99.512;2023-04-15T11:55:40;56.67;;;50.55;;
36797;SDS011;22748;8.426;99.512;2023-04-15T11:58:15;53.97;;;48.47;;
36797;SDS011;22748;8.426;99.512;2023-04-15T12:00:48;68.53;;;59.47;;
36797;SDS011;22748;8.426;99.512;2023-04-15T12:03:21;89.03;;;71.03;;
36797;SDS011;22748;8.426;99.512;2023-04-15T12:08:58;69.53;;;58.90;;
36797;SDS011;22748;8.426;99.512;2023-04-15T12:11:36;80.05;;;65.50;;
36797;SDS011;22748;8.426;99.512;2023-04-15T12:14:15;70.47;;;60.28;;
36797;SDS011;22748;8.426;99.512;2023-04-15T12:16:51;79.57;;;61.35;;
36797;SDS011;22748;8.426;99.512;2023-04-15T12:19:23;72.40;;;60.63;;
36797;SDS011;22748;8.426;99.512;2023-04-15T12:21:57;78.75;;;63.75;;
36797;SDS011;22748;8.426;99.512;2023-04-15T12:24:28;81.50;;;63.03;;
36797;SDS011;22748;8.426;99.512;2023-04-15T12:27:01;80.57;;;61.83;;
36797;SDS011;22748;8.426;99.512;2023-04-15T12:29:34;83.88;;;64.90;;
36797;SDS011;22748;8.426;99.512;2023-04-15T12:32:06;70.57;;;59.47;;
36797;SDS011;22748;8.426;99.512;2023-04-15T12:34:39;72.70;;;59.78;;
36797;SDS011;22748;8.426;99.512;2023-04-15T12:37:11;70.32;;;58.33;;
36797;SDS011;22748;8.426;99.512;2023-04-15T12:39:43;68.20;;;58.40;;
36797;SDS011;22748;8.426;99.512;2023-04-15T12:42:17;87.68;;;67.20;;
36797;SDS011;22748;8.426;99.512;2023-04-15T12:44:49;98.30;;;74.82;;
36797;SDS011;22748;8.426;99.512;2023-04-15T12:47:20;86.07;;;65.47;;
36797;SDS011;22748;8.426;99.512;2023-04-15T12:52:20;69.78;;;60.55;;
36797;SDS011;22748;8.426;99.512;2023-04-15T12:54:50;74.10;;;62.40;;
36797;SDS011;22748;8.426;99.512;2023-04-15T12:57:31;70.85;;;60.15;;
36797;SDS011;22748;8.426;99.512;2023-04-15T13:00:04;63.33;;;56.63;;
36797;SDS011;22748;8.426;99.512;2023-04-15T13:02:36;64.63;;;57.60;;
36797;SDS011;22748;8.426;99.512;2023-04-15T13:05:06;61.65;;;55.35;;
36797;SDS011;22748;8.426;99.512;2023-04-15T13:07:37;61.58;;;55.17;;
36797;SDS011;22748;8.426;99.512;2023-04-15T13:10:09;61.42;;;54.92;;
36797;SDS011;22748;8.426;99.512;2023-04-15T13:12:40;62.45;;;55.85;;
36797;SDS011;22748;8.426;99.512;2023-04-15T13:15:15;71.60;;;63.78;;
36797;SDS011;22748;8.426;99.512;2023-04-15T13:17:47;76.50;;;68.28;;
36797;SDS011;22748;8.426;99.512;2023-04-15T13:20:18;74.80;;;66.85;;
36797;SDS011;22748;8.426;99.512;2023-04-15T13:22:49;71.65;;;64.10;;
36797;SDS011;22748;8.426;99.512;2023-04-15T13:25:21;66.28;;;59.42;;
36797;SDS011;22748;8.426;99.512;2023-04-15T13:27:53;65.55;;;58.80;;
36797;SDS011;22748;8.426;99.512;2023-04-15T13:30:25;64.65;;;58.00;;
36797;SDS011;22748;8.426;99.512;2023-04-15T13:32:56;65.88;;;58.70;;
36797;SDS011;22748;8.426;99.512;2023-04-15T13:35:28;69.93;;;62.55;;
36797;SDS011;22748;8.426;99.512;2023-04-15T13:40:28;75.15;;;66.28;;
36797;SDS011;22748;8.426;99.512;2023-04-15T13:42:57;98.43;;;83.13;;
36797;SDS011;22748;8.426;99.512;2023-04-15T13:47:59;435.75;;;322.10;;
36797;SDS011;22748;8.426;99.512;2023-04-15T13:50:29;485.70;;;362.57;;
36797;SDS011;22748;8.426;99.512;2023-04-15T13:53:00;284.70;;;214.87;;
36797;SDS011;22748;8.426;99.512;2023-04-15T13:58:01;137.20;;;112.55;;
36797;SDS011;22748;8.426;99.512;2023-04-15T14:00:34;114.28;;;96.35;;
36797;SDS011;22748;8.426;99.512;2023-04-15T14:03:04;103.68;;;92.03;;
36797;SDS011;22748;8.426;99.512;2023-04-15T14:05:34;90.60;;;80.63;;
36797;SDS011;22748;8.426;99.512;2023-04-15T14:10:35;84.28;;;72.50;;
36797;SDS011;22748;8.426;99.512;2023-04-15T14:13:08;155.73;;;121.78;;
36797;SDS011;22748;8.426;99.512;2023-04-15T14:15:41;99.40;;;83.00;;
36797;SDS011;22748;8.426;99.512;2023-04-15T14:18:11;68.43;;;61.38;;
36797;SDS011;22748;8.426;99.512;2023-04-15T14:20:42;66.93;;;59.97;;
36797;SDS011;22748;8.426;99.512;2023-04-15T14:23:13;66.97;;;59.53;;
36797;SDS011;22748;8.426;99.512;2023-04-15T14:25:44;65.80;;;58.92;;
36797;SDS011;22748;8.426;99.512;2023-04-15T14:30:47;63.85;;;57.38;;
36797;SDS011;22748;8.426;99.512;2023-04-15T14:33:19;73.50;;;65.13;;
36797;SDS011;22748;8.426;99.512;2023-04-15T14:38:18;72.88;;;64.65;;
36797;SDS011;22748;8.426;99.512;2023-04-15T14:40:49;71.75;;;64.07;;
36797;SDS011;22748;8.426;99.512;2023-04-15T14:43:19;70.70;;;62.85;;
36797;SDS011;22748;8.426;99.512;2023-04-15T14:45:54;71.63;;;64.22;;
36797;SDS011;22748;8.426;99.512;2023-04-15T14:48:25;68.70;;;61.35;;
36797;SDS011;22748;8.426;99.512;2023-04-15T14:50:55;68.40;;;61.25;;
36797;SDS011;22748;8.426;99.512;2023-04-15T14:53:27;63.75;;;57.10;;
36797;SDS011;22748;8.426;99.512;2023-04-15T14:55:58;66.20;;;59.00;;
36797;SDS011;22748;8.426;99.512;2023-04-15T14:58:30;67.18;;;60.47;;
36797;SDS011;22748;8.426;99.512;2023-04-15T15:01:05;67.38;;;60.72;;
36797;SDS011;22748;8.426;99.512;2023-04-15T15:03:35;66.30;;;59.72;;
36797;SDS011;22748;8.426;99.512;2023-04-15T15:06:06;68.40;;;61.35;;
36797;SDS011;22748;8.426;99.512;2023-04-15T15:08:37;69.60;;;62.30;;
36797;SDS011;22748;8.426;99.512;2023-04-15T15:11:10;66.18;;;59.67;;
36797;SDS011;22748;8.426;99.512;2023-04-15T15:13:41;65.05;;;58.67;;
36797;SDS011;22748;8.426;99.512;2023-04-15T15:16:14;64.78;;;58.38;;
36797;SDS011;22748;8.426;99.512;2023-04-15T15:18:44;66.10;;;59.13;;
36797;SDS011;22748;8.426;99.512;2023-04-15T15:21:15;65.78;;;59.08;;
36797;SDS011;22748;8.426;99.512;2023-04-15T15:26:17;64.35;;;57.97;;
36797;SDS011;22748;8.426;99.512;2023-04-15T15:28:48;64.78;;;58.17;;
36797;SDS011;22748;8.426;99.512;2023-04-15T15:33:51;64.45;;;58.03;;
36797;SDS011;22748;8.426;99.512;2023-04-15T15:36:23;64.68;;;58.40;;
36797;SDS011;22748;8.426;99.512;2023-04-15T15:38:55;65.75;;;59.25;;
36797;SDS011;22748;8.426;99.512;2023-04-15T15:41:25;63.13;;;56.60;;
36797;SDS011;22748;8.426;99.512;2023-04-15T15:43:56;63.67;;;57.10;;
36797;SDS011;22748;8.426;99.512;2023-04-15T15:48:59;63.78;;;57.50;;
36797;SDS011;22748;8.426;99.512;2023-04-15T15:51:32;66.38;;;59.63;;
36797;SDS011;22748;8.426;99.512;2023-04-15T15:54:02;65.20;;;58.28;;
36797;SDS011;22748;8.426;99.512;2023-04-15T15:56:36;63.15;;;56.95;;
36797;SDS011;22748;8.426;99.512;2023-04-15T15:59:11;64.47;;;57.85;;
36797;SDS011;22748;8.426;99.512;2023-04-15T16:01:44;64.55;;;58.05;;
36797;SDS011;22748;8.426;99.512;2023-04-15T16:04:15;76.90;;;69.43;;
36797;SDS011;22748;8.426;99.512;2023-04-15T16:06:45;68.55;;;61.72;;
36797;SDS011;22748;8.426;99.512;2023-04-15T16:09:16;72.45;;;62.47;;
36797;SDS011;22748;8.426;99.512;2023-04-15T16:11:47;69.80;;;62.15;;
36797;SDS011;22748;8.426;99.512;2023-04-15T16:14:17;68.95;;;61.80;;